Time;durP1;ratioP1;P1;durP2;ratioP2;P2;SDS_P1;SDS_P2;PMS_P1;PMS_P2;Temp;Humidity;BMP_temperature;BMP_pressure;BME280_temperature;BME280_humidity;BME280_pressure;Samples;Min_cycle;Max_cycle;Signal;HPM_P1;HPM_P2
2023/05/10 00:00:42;;;;;;;10.35;5.15;;;;;;;12.18;52.92;100555.50;5025315;28;20065;-58
2023/05/10 00:03:09;;;;;;;7.95;5.40;;;;;;;12.16;53.12;100556.44;5021621;28;20682;-56
2023/05/10 00:05:36;;;;;;;8.10;5.38;;;;;;;12.15;52.98;100560.00;5024067;28;20060;-54
2023/05/10 00:08:03;;;;;;;7.45;5.05;;;;;;;12.12;53.44;100554.13;5020856;28;20050;-57
2023/05/10 00:10:31;;;;;;;7.93;4.72;;;;;;;12.10;52.95;100553.34;5021541;28;20058;-54
2023/05/10 00:12:58;;;;;;;15.00;5.72;;;;;;;12.06;53.13;100559.78;5021651;28;20092;-53
2023/05/10 00:15:25;;;;;;;10.07;5.93;;;;;;;12.02;53.37;100547.75;5020543;28;20514;-57
2023/05/10 00:17:52;;;;;;;8.43;5.30;;;;;;;11.96;53.26;100549.00;5025385;28;20058;-55
2023/05/10 00:20:20;;;;;;;6.75;5.45;;;;;;;11.95;53.62;100543.84;5021219;28;20049;-53
2023/05/10 00:22:47;;;;;;;8.25;5.18;;;;;;;11.95;53.70;100549.94;5031905;28;20061;-55
2023/05/10 00:25:14;;;;;;;6.30;5.10;;;;;;;11.92;53.53;100539.59;5022274;28;20099;-58
2023/05/10 00:27:41;;;;;;;8.77;5.53;;;;;;;11.87;53.94;100539.06;5022698;28;20093;-56
2023/05/10 00:30:09;;;;;;;7.88;5.38;;;;;;;11.84;54.15;100539.25;5021746;28;20142;-54
2023/05/10 00:32:36;;;;;;;12.63;5.47;;;;;;;11.80;54.02;100541.22;5020784;28;20140;-56
2023/05/10 00:35:03;;;;;;;11.02;5.47;;;;;;;11.78;53.90;100529.91;5030869;28;20041;-58
2023/05/10 00:37:30;;;;;;;11.68;5.60;;;;;;;11.72;54.17;100527.69;5032881;28;20053;-56
2023/05/10 00:39:58;;;;;;;9.43;5.15;;;;;;;11.68;54.65;100530.63;5034179;28;20136;-57
2023/05/10 00:42:25;;;;;;;5.95;4.63;;;;;;;11.64;54.95;100532.59;5032297;28;20064;-53
2023/05/10 00:44:52;;;;;;;10.23;5.53;;;;;;;11.58;55.05;100519.84;5024946;28;20049;-58
2023/05/10 00:47:19;;;;;;;9.77;5.00;;;;;;;11.51;54.77;100521.16;5025264;28;20048;-53
2023/05/10 00:49:47;;;;;;;7.38;5.45;;;;;;;11.46;54.98;100523.25;5026682;28;20631;-54
2023/05/10 00:52:14;;;;;;;7.35;5.50;;;;;;;11.43;55.41;100519.00;5026389;28;20057;-55
2023/05/10 00:54:41;;;;;;;7.63;5.30;;;;;;;11.40;55.47;100519.22;5028652;28;20057;-56
2023/05/10 00:57:09;;;;;;;9.45;5.68;;;;;;;11.37;55.85;100516.78;5027724;28;20063;-55
2023/05/10 00:59:36;;;;;;;7.05;5.35;;;;;;;11.34;55.78;100515.16;5031043;28;20054;-54
2023/05/10 01:02:03;;;;;;;10.52;4.93;;;;;;;11.32;55.79;100510.97;5028174;28;20071;-54
2023/05/10 01:04:31;;;;;;;7.55;5.60;;;;;;;11.29;55.85;100501.44;5025290;28;20073;-56
2023/05/10 01:06:59;;;;;;;7.07;4.93;;;;;;;11.23;56.30;100504.47;5028374;28;20095;-56
2023/05/10 01:09:26;;;;;;;8.90;5.72;;;;;;;11.16;56.23;100504.00;5021300;28;20449;-56
2023/05/10 01:11:54;;;;;;;10.02;5.55;;;;;;;11.13;56.70;100504.22;5023579;28;20140;-57
2023/05/10 01:14:21;;;;;;;10.20;5.22;;;;;;;11.10;56.85;100493.03;5025127;28;20053;-57
2023/05/10 01:16:49;;;;;;;8.38;5.47;;;;;;;11.06;56.63;100494.16;5024282;28;20069;-56
2023/05/10 01:19:22;;;;;;;11.10;5.57;;;;;;;11.02;57.17;100490.03;5019855;28;20060;-53
2023/05/10 01:22:09;;;;;;;7.10;5.22;;;;;;;11.00;57.21;100486.66;5036713;28;20061;-57
2023/05/10 01:25:08;;;;;;;12.55;5.47;;;;;;;10.95;57.42;100492.22;5026308;28;20055;-53
2023/05/10 01:27:53;;;;;;;7.60;5.05;;;;;;;10.93;58.22;100491.44;5023656;28;20045;-53
2023/05/10 01:30:58;;;;;;;12.05;5.57;;;;;;;10.88;58.50;100489.09;5020166;28;20065;-55
2023/05/10 01:33:47;;;;;;;12.88;5.78;;;;;;;10.87;58.72;100494.47;5027074;28;20593;-57
2023/05/10 01:36:26;;;;;;;7.68;4.70;;;;;;;10.84;58.52;100489.38;5014379;28;20064;-57
2023/05/10 01:39:15;;;;;;;8.13;5.15;;;;;;;10.81;58.39;100489.59;5021793;28;20175;-57
2023/05/10 01:42:04;;;;;;;8.10;5.88;;;;;;;10.77;58.73;100490.72;5006916;28;20092;-55
2023/05/10 01:44:49;;;;;;;7.55;4.80;;;;;;;10.69;58.42;100478.03;5031389;28;20286;-53
2023/05/10 01:47:44;;;;;;;8.45;6.20;;;;;;;10.62;59.45;100481.97;5026326;28;20045;-55
2023/05/10 01:50:18;;;;;;;7.10;5.45;;;;;;;10.56;59.22;100477.91;5048822;28;20057;-57
2023/05/10 01:52:54;;;;;;;6.60;4.65;;;;;;;10.52;59.64;100484.31;5033220;28;20053;-58
2023/05/10 01:55:24;;;;;;;10.93;5.13;;;;;;;10.51;59.87;100479.16;5030076;28;20049;-57
2023/05/10 01:57:58;;;;;;;10.80;5.22;;;;;;;10.50;60.42;100474.84;5032699;28;20054;-56
2023/05/10 02:00:26;;;;;;;6.75;5.10;;;;;;;10.49;60.49;100481.00;5038060;28;20061;-55
2023/05/10 02:02:54;;;;;;;7.25;5.07;;;;;;;10.45;59.97;100477.75;5036900;28;20162;-56
2023/05/10 02:05:22;;;;;;;7.78;5.38;;;;;;;10.41;60.24;100476.25;5037883;28;20056;-58
2023/05/10 02:07:50;;;;;;;10.52;5.13;;;;;;;10.36;60.03;100473.03;5042647;28;20253;-57
2023/05/10 02:10:18;;;;;;;11.32;5.70;;;;;;;10.33;60.72;100474.06;5034913;28;20147;-55
2023/05/10 02:16:05;;;;;;;12.02;5.32;;;;;;;10.26;60.82;100472.72;5035957;28;20072;-54
2023/05/10 02:18:34;;;;;;;8.55;6.18;;;;;;;10.23;61.75;100466.78;5023962;28;20053;-56
2023/05/10 02:21:02;;;;;;;9.60;5.80;;;;;;;10.23;61.42;100474.69;5021936;28;20140;-55
2023/05/10 02:23:30;;;;;;;8.95;5.15;;;;;;;10.20;61.80;100470.44;5020648;28;20057;-57
2023/05/10 02:25:58;;;;;;;7.65;5.20;;;;;;;10.16;62.41;100468.94;5027904;28;20053;-54
2023/05/10 02:28:25;;;;;;;7.70;5.53;;;;;;;10.13;61.79;100463.84;5032200;28;20054;-56
2023/05/10 02:30:53;;;;;;;6.93;4.75;;;;;;;10.09;61.87;100454.47;5023241;28;20053;-56
2023/05/10 02:33:21;;;;;;;8.57;5.10;;;;;;;10.05;61.87;100463.47;5016907;28;20061;-56
2023/05/10 02:35:50;;;;;;;10.07;5.97;;;;;;;10.03;62.38;100458.28;5027130;28;20057;-56
2023/05/10 02:38:19;;;;;;;10.85;5.53;;;;;;;10.01;62.14;100454.06;5007999;28;20103;-58
2023/05/10 02:40:47;;;;;;;7.22;5.05;;;;;;;9.98;62.43;100456.88;5037453;28;20441;-58
2023/05/10 02:43:16;;;;;;;9.52;5.97;;;;;;;9.95;62.89;100452.66;5022370;28;20049;-54
2023/05/10 02:45:43;;;;;;;9.70;5.03;;;;;;;9.95;62.61;100460.53;5022408;28;20053;-55
2023/05/10 02:48:10;;;;;;;8.85;5.10;;;;;;;9.95;62.64;100463.16;5034648;28;20395;-55
2023/05/10 02:50:40;;;;;;;7.75;4.82;;;;;;;9.97;63.04;100457.81;5022517;28;20050;-57
2023/05/10 02:53:11;;;;;;;9.38;5.18;;;;;;;10.00;63.66;100455.00;5042411;28;20429;-55
2023/05/10 02:55:41;;;;;;;6.13;4.20;;;;;;;10.03;63.13;100458.28;5021651;28;20473;-53
2023/05/10 02:58:08;;;;;;;8.40;5.07;;;;;;;10.03;63.11;100454.81;5018176;28;20113;-57
2023/05/10 03:00:36;;;;;;;8.07;4.60;;;;;;;10.00;62.50;100457.63;5023918;28;20511;-55
2023/05/10 03:03:03;;;;;;;6.50;4.55;;;;;;;9.95;63.13;100454.41;5033854;28;20521;-54
2023/05/10 03:05:30;;;;;;;9.30;4.85;;;;;;;9.92;62.89;100457.25;5025142;28;20048;-56
2023/05/10 03:07:57;;;;;;;8.93;5.38;;;;;;;9.90;62.91;100459.94;5019910;28;20068;-53
2023/05/10 03:10:27;;;;;;;11.02;4.70;;;;;;;9.88;62.51;100467.09;5018199;28;20107;-56
2023/05/10 03:13:29;;;;;;;8.55;5.30;;;;;;;9.84;62.62;100457.69;5023202;28;20066;-55
2023/05/10 03:16:08;;;;;;;11.02;5.68;;;;;;;9.81;62.55;100460.47;5021618;28;20060;-55
2023/05/10 03:18:50;;;;;;;6.93;4.80;;;;;;;9.77;62.72;100459.84;5017930;28;20509;-57
2023/05/10 03:21:18;;;;;;;9.98;5.32;;;;;;;9.74;63.57;100453.91;5025372;28;20057;-57
2023/05/10 03:23:59;;;;;;;9.40;5.03;;;;;;;9.77;63.38;100458.97;5021888;28;20136;-57
2023/05/10 03:26:28;;;;;;;6.05;4.30;;;;;;;9.81;63.14;100455.22;5018351;28;20057;-52
2023/05/10 03:28:55;;;;;;;5.93;4.82;;;;;;;9.82;62.87;100455.16;5025591;28;20513;-53
2023/05/10 03:31:23;;;;;;;7.88;4.88;;;;;;;9.83;63.44;100463.88;5021493;28;20080;-57
2023/05/10 03:33:51;;;;;;;8.98;4.85;;;;;;;9.81;62.66;100452.59;5026331;28;20069;-57
2023/05/10 03:36:19;;;;;;;10.57;5.00;;;;;;;9.80;62.52;100453.53;5021179;28;20088;-55
2023/05/10 03:38:46;;;;;;;8.85;5.80;;;;;;;9.76;62.85;100459.91;5021538;28;20049;-56
2023/05/10 03:41:14;;;;;;;10.10;5.20;;;;;;;9.72;62.90;100453.97;5023795;28;20057;-54
2023/05/10 03:43:41;;;;;;;8.57;5.07;;;;;;;9.72;63.09;100453.13;5018626;28;20050;-55
2023/05/10 03:46:08;;;;;;;13.38;5.38;;;;;;;9.71;63.63;100444.41;5024262;28;20060;-56
2023/05/10 03:48:35;;;;;;;9.65;5.40;;;;;;;9.69;63.58;100450.69;5026495;28;20049;-55
2023/05/10 03:51:03;;;;;;;10.32;5.38;;;;;;;9.70;63.95;100447.97;5027122;28;20049;-56
2023/05/10 03:53:30;;;;;;;7.05;5.40;;;;;;;9.74;63.35;100446.00;5026906;28;20033;-55
2023/05/10 03:55:57;;;;;;;8.57;4.70;;;;;;;9.77;63.37;100453.69;5026603;28;20053;-58
2023/05/10 03:58:24;;;;;;;12.48;5.50;;;;;;;9.77;63.45;100451.94;5025373;28;20046;-53
2023/05/10 04:00:52;;;;;;;10.85;5.22;;;;;;;9.80;63.20;100454.38;5017591;28;20086;-53
2023/05/10 04:03:20;;;;;;;9.27;4.63;;;;;;;9.89;63.13;100453.00;5015358;28;20053;-55
2023/05/10 04:05:47;;;;;;;8.80;4.60;;;;;;;9.93;62.90;100457.13;5016090;28;20050;-55
2023/05/10 04:08:16;;;;;;;10.00;5.07;;;;;;;9.95;62.36;100446.53;5021286;28;20084;-54
2023/05/10 04:10:43;;;;;;;10.90;5.10;;;;;;;9.97;62.93;100448.13;5032647;28;20525;-58
2023/05/10 04:13:10;;;;;;;11.20;5.18;;;;;;;9.97;62.49;100456.03;5018742;28;20096;-57
2023/05/10 04:15:38;;;;;;;7.18;4.60;;;;;;;9.98;62.40;100443.72;5024998;28;20901;-58
2023/05/10 04:18:05;;;;;;;12.25;5.35;;;;;;;9.99;62.19;100448.03;5023325;28;20041;-53
2023/05/10 04:20:34;;;;;;;7.68;4.95;;;;;;;10.05;62.24;100448.53;5026157;28;20417;-58
2023/05/10 04:23:02;;;;;;;5.95;4.22;;;;;;;10.09;61.87;100444.78;5020376;28;20140;-54
2023/05/10 04:25:29;;;;;;;9.23;4.53;;;;;;;10.13;62.31;100445.44;5019328;28;20061;-56
2023/05/10 04:27:56;;;;;;;13.65;5.13;;;;;;;10.17;62.26;100438.19;5025675;28;20049;-55
2023/05/10 04:30:23;;;;;;;15.32;4.90;;;;;;;10.20;61.79;100440.66;5022645;28;20064;-55
2023/05/10 04:32:50;;;;;;;6.25;4.35;;;;;;;10.24;63.00;100440.41;5022083;28;20367;-56
2023/05/10 04:35:18;;;;;;;11.18;4.80;;;;;;;10.26;62.27;100438.53;5020906;28;20048;-55
2023/05/10 04:37:45;;;;;;;8.50;4.72;;;;;;;10.31;62.45;100446.13;5032006;28;20041;-54
2023/05/10 04:40:12;;;;;;;11.60;5.03;;;;;;;10.37;62.11;100448.41;5017269;28;20049;-54
2023/05/10 04:42:41;;;;;;;10.85;4.75;;;;;;;10.41;61.94;100442.03;5023324;28;20511;-55
2023/05/10 04:45:09;;;;;;;8.60;4.57;;;;;;;10.47;61.39;100443.44;5021628;28;20057;-55
2023/05/10 04:47:36;;;;;;;8.07;4.72;;;;;;;10.53;61.55;100436.00;5020403;28;20054;-56
2023/05/10 04:50:04;;;;;;;13.02;4.75;;;;;;;10.63;61.43;100439.75;5019985;28;20053;-57
2023/05/10 04:52:32;;;;;;;11.63;4.50;;;;;;;10.72;61.52;100430.44;5033814;28;20117;-55
2023/05/10 04:54:59;;;;;;;7.55;4.35;;;;;;;10.81;61.07;100434.28;5016486;28;20707;-56
2023/05/10 04:57:26;;;;;;;5.43;3.88;;;;;;;10.89;60.49;100430.22;5018508;28;20045;-53
2023/05/10 04:59:53;;;;;;;6.85;4.55;;;;;;;10.94;59.70;100435.19;5021515;28;20061;-56
2023/05/10 05:02:20;;;;;;;7.32;4.25;;;;;;;11.00;59.67;100426.91;5016125;28;20073;-53
2023/05/10 05:04:47;;;;;;;6.20;3.90;;;;;;;11.06;59.70;100430.94;5017882;28;20048;-54
2023/05/10 05:07:15;;;;;;;11.20;4.47;;;;;;;11.12;59.21;100435.78;5020936;28;20056;-55
2023/05/10 05:09:42;;;;;;;8.77;4.55;;;;;;;11.19;58.78;100431.84;5013787;28;20635;-57
2023/05/10 05:12:13;;;;;;;11.57;4.53;;;;;;;11.25;58.77;100438.50;5022448;28;20506;-55
2023/05/10 05:14:41;;;;;;;9.20;4.93;;;;;;;11.36;58.43;100428.13;5023436;28;20045;-53
2023/05/10 05:17:08;;;;;;;6.05;3.72;;;;;;;11.43;58.34;100429.38;5026668;28;20401;-58
2023/05/10 05:19:35;;;;;;;7.90;4.28;;;;;;;11.49;58.40;100428.16;5017148;28;20652;-53
2023/05/10 05:22:02;;;;;;;8.90;4.32;;;;;;;11.59;58.04;100429.25;5022410;28;20064;-57
2023/05/10 05:24:35;;;;;;;9.00;3.78;;;;;;;11.69;57.30;100425.03;5028247;28;20051;-55
2023/05/10 05:27:02;;;;;;;6.18;4.20;;;;;;;11.79;57.94;100427.91;5018093;28;20171;-56
2023/05/10 05:29:29;;;;;;;9.02;3.95;;;;;;;11.91;57.17;100419.19;5022658;28;20044;-57
2023/05/10 05:31:56;;;;;;;7.85;3.95;;;;;;;11.97;56.47;100423.22;5016135;28;20045;-54
2023/05/10 05:34:24;;;;;;;8.93;4.63;;;;;;;11.99;56.59;100424.81;5019645;28;20382;-54
2023/05/10 05:36:51;;;;;;;7.45;4.38;;;;;;;12.08;56.53;100425.97;5023414;28;20058;-57
2023/05/10 05:39:18;;;;;;;5.40;3.50;;;;;;;12.16;55.80;100429.78;5032505;28;20038;-57
2023/05/10 05:41:46;;;;;;;7.38;3.50;;;;;;;12.24;55.89;100420.47;5025750;28;20053;-57
2023/05/10 05:44:13;;;;;;;7.43;3.38;;;;;;;12.37;56.27;100424.78;5030797;28;20046;-53
2023/05/10 05:46:40;;;;;;;5.43;3.67;;;;;;;12.48;55.54;100423.22;5021841;28;20071;-56
2023/05/10 05:49:07;;;;;;;8.25;3.53;;;;;;;12.58;55.04;100422.47;5027903;28;20056;-57
2023/05/10 05:51:35;;;;;;;10.05;3.60;;;;;;;12.66;54.46;100416.66;5019580;28;20076;-55
2023/05/10 05:54:04;;;;;;;4.63;3.30;;;;;;;12.76;54.37;100422.13;5023261;28;20473;-53
2023/05/10 05:56:31;;;;;;;6.85;3.08;;;;;;;12.83;54.13;100418.06;5032740;28;20061;-54
2023/05/10 05:58:58;;;;;;;5.72;3.20;;;;;;;12.89;54.01;100410.56;5028966;28;20053;-55
2023/05/10 06:01:25;;;;;;;9.48;3.40;;;;;;;12.99;54.10;100409.91;5029939;28;20057;-54
2023/05/10 06:03:53;;;;;;;6.50;3.70;;;;;;;13.07;54.01;100416.31;5026556;28;20136;-56
2023/05/10 06:06:20;;;;;;;7.78;3.05;;;;;;;13.18;53.62;100418.16;5029565;28;20049;-53
2023/05/10 06:08:47;;;;;;;5.28;3.40;;;;;;;13.31;53.17;100415.50;5029927;28;20041;-52
2023/05/10 06:11:14;;;;;;;6.60;2.72;;;;;;;13.33;53.16;100413.59;5030196;28;20139;-55
2023/05/10 06:13:42;;;;;;;5.70;3.53;;;;;;;13.44;52.92;100413.63;5028200;28;20135;-57
2023/05/10 06:16:09;;;;;;;5.05;3.08;;;;;;;13.57;52.72;100413.56;5029689;28;20475;-56
2023/05/10 06:18:36;;;;;;;11.55;2.95;;;;;;;13.72;52.08;100424.81;5028615;28;20065;-55
2023/05/10 06:21:03;;;;;;;7.88;2.53;;;;;;;13.78;51.60;100419.91;5028589;28;20336;-57
2023/05/10 06:23:31;;;;;;;3.55;2.45;;;;;;;13.78;51.28;100417.25;5030350;28;20398;-57
2023/05/10 06:25:58;;;;;;;6.15;2.70;;;;;;;13.74;51.45;100418.44;5022549;28;20053;-56
2023/05/10 06:28:25;;;;;;;8.65;3.10;;;;;;;13.83;51.93;100416.91;5031587;28;20056;-57
2023/05/10 06:30:52;;;;;;;9.73;2.90;;;;;;;13.85;51.21;100413.16;5025592;28;20064;-56
2023/05/10 06:33:19;;;;;;;8.27;3.00;;;;;;;13.98;51.41;100406.94;5023727;28;20524;-53
2023/05/10 06:35:46;;;;;;;6.80;3.17;;;;;;;14.03;50.72;100424.16;5021947;28;20060;-53
2023/05/10 06:38:14;;;;;;;10.43;2.80;;;;;;;14.06;51.01;100416.00;5028174;28;20049;-55
2023/05/10 06:40:42;;;;;;;7.15;2.58;;;;;;;14.13;50.90;100416.34;5028990;28;20439;-54
2023/05/10 06:43:09;;;;;;;5.47;2.78;;;;;;;14.29;50.48;100413.38;5028321;28;20041;-52
2023/05/10 06:45:36;;;;;;;9.40;2.67;;;;;;;14.33;50.22;100417.47;5025721;28;20053;-57
2023/05/10 06:48:04;;;;;;;7.90;3.28;;;;;;;14.32;50.26;100421.06;5025801;28;20211;-56
2023/05/10 06:50:31;;;;;;;7.50;3.45;;;;;;;14.33;50.32;100414.81;5025804;28;20048;-56
2023/05/10 06:52:58;;;;;;;8.70;3.03;;;;;;;14.39;50.15;100420.47;5024781;28;20095;-57
2023/05/10 06:55:26;;;;;;;11.15;2.70;;;;;;;14.43;50.23;100413.97;5027104;28;20137;-53
2023/05/10 06:57:53;;;;;;;5.25;2.40;;;;;;;14.53;50.22;100419.41;5027925;28;20045;-57
2023/05/10 07:00:20;;;;;;;12.23;2.88;;;;;;;14.66;49.75;100414.84;5023658;28;20057;-55
2023/05/10 07:02:48;;;;;;;6.03;2.83;;;;;;;14.62;49.77;100418.69;5028130;28;20060;-57
2023/05/10 07:05:15;;;;;;;5.75;3.10;;;;;;;14.68;49.80;100417.38;5025257;28;20061;-56
2023/05/10 07:07:43;;;;;;;8.52;2.97;;;;;;;14.74;49.97;100413.41;5027580;28;20060;-57
2023/05/10 07:10:10;;;;;;;7.43;2.83;;;;;;;14.82;49.71;100425.06;5031632;28;20063;-53
2023/05/10 07:12:38;;;;;;;10.55;2.72;;;;;;;14.90;49.31;100420.00;5023517;28;20482;-55
2023/05/10 07:15:06;;;;;;;7.40;2.85;;;;;;;14.90;49.49;100417.34;5027909;28;20509;-56
2023/05/10 07:17:33;;;;;;;3.90;2.53;;;;;;;15.04;49.40;100413.59;5024119;28;20409;-52
2023/05/10 07:20:01;;;;;;;4.68;2.78;;;;;;;15.17;49.03;100405.47;5026287;28;20053;-57
2023/05/10 07:22:28;;;;;;;6.03;2.90;;;;;;;15.34;48.71;100406.75;5023522;28;20053;-57
2023/05/10 07:24:55;;;;;;;5.90;2.90;;;;;;;15.39;48.21;100399.25;5027171;28;20045;-58
2023/05/10 07:27:22;;;;;;;8.93;2.90;;;;;;;15.50;48.33;100407.16;5027068;28;20053;-54
2023/05/10 07:29:50;;;;;;;10.18;6.47;;;;;;;15.73;47.82;100409.75;5028122;28;20055;-49
2023/05/10 07:32:17;;;;;;;25.55;15.38;;;;;;;15.90;47.74;100414.47;5027394;28;20509;-47
2023/05/10 07:34:44;;;;;;;6.43;3.22;;;;;;;15.99;47.26;100410.22;5029369;28;20611;-59
2023/05/10 07:37:11;;;;;;;7.38;2.40;;;;;;;16.05;47.36;100410.50;5023321;28;20061;-59
2023/05/10 07:39:39;;;;;;;8.02;2.53;;;;;;;15.99;46.96;100419.00;5030667;28;20516;-58
2023/05/10 07:42:06;;;;;;;6.78;2.78;;;;;;;16.02;46.98;100410.75;5024896;28;20056;-59
2023/05/10 07:44:33;;;;;;;7.35;3.45;;;;;;;16.13;47.35;100413.38;5026885;28;20076;-57
2023/05/10 07:47:00;;;;;;;8.77;3.50;;;;;;;16.30;46.71;100406.59;5028799;28;20049;-59
2023/05/10 07:49:27;;;;;;;10.63;2.90;;;;;;;16.51;46.83;100395.06;5014382;28;20117;-60
2023/05/10 07:51:54;;;;;;;7.70;2.83;;;;;;;16.62;45.96;100403.81;5020774;28;20225;-59
2023/05/10 07:54:21;;;;;;;10.65;3.03;;;;;;;16.70;45.83;100406.59;5021590;28;20045;-58
2023/05/10 07:56:49;;;;;;;13.55;2.85;;;;;;;16.75;46.24;100402.72;5026203;28;20041;-59
2023/05/10 07:59:16;;;;;;;4.22;2.45;;;;;;;16.92;45.65;100391.44;5027045;28;20178;-59
2023/05/10 08:01:44;;;;;;;6.13;3.03;;;;;;;17.15;45.49;100400.84;5025183;28;20149;-59
2023/05/10 08:04:11;;;;;;;6.68;2.88;;;;;;;17.31;45.40;100396.81;5024970;28;20061;-59
2023/05/10 08:06:39;;;;;;;7.05;2.10;;;;;;;17.48;45.04;100398.78;5025914;28;20052;-57
2023/05/10 08:09:07;;;;;;;9.57;2.78;;;;;;;17.62;44.31;100405.50;5027230;28;20072;-59
2023/05/10 08:11:35;;;;;;;7.15;2.28;;;;;;;17.49;43.80;100418.25;5023477;28;20132;-59
2023/05/10 08:14:02;;;;;;;3.60;2.42;;;;;;;17.49;43.53;100408.47;5031670;28;20381;-59
2023/05/10 08:16:29;;;;;;;4.63;2.72;;;;;;;17.54;43.68;100408.88;5032092;28;20523;-58
2023/05/10 08:18:56;;;;;;;8.18;2.53;;;;;;;17.58;44.22;100407.63;5025504;28;20060;-59
2023/05/10 08:21:23;;;;;;;7.32;2.65;;;;;;;17.74;44.58;100406.22;5025327;28;20474;-58
2023/05/10 08:23:50;;;;;;;3.67;2.15;;;;;;;17.86;44.04;100395.28;5029973;28;20056;-59
2023/05/10 08:26:18;;;;;;;4.57;2.38;;;;;;;17.88;42.76;100403.13;5027402;28;20253;-59
2023/05/10 08:28:45;;;;;;;5.53;2.40;;;;;;;17.95;43.59;100406.91;5026305;28;20061;-59
2023/05/10 08:31:12;;;;;;;6.97;2.38;;;;;;;18.01;42.86;100398.31;5029241;28;20494;-60
2023/05/10 08:33:39;;;;;;;6.05;2.67;;;;;;;18.11;43.08;100404.50;5027040;28;20049;-60
2023/05/10 08:36:09;;;;;;;5.05;2.13;;;;;;;18.28;42.40;100408.22;5023946;28;20571;-60
2023/05/10 08:38:37;;;;;;;5.10;2.40;;;;;;;18.27;42.00;100403.03;5024850;28;20394;-59
2023/05/10 08:41:05;;;;;;;6.07;3.13;;;;;;;18.21;42.08;100402.63;5024159;28;20042;-54
2023/05/10 08:43:32;;;;;;;5.70;2.55;;;;;;;18.16;41.55;100401.38;5024900;28;20046;-56
2023/05/10 08:46:01;;;;;;;3.72;2.30;;;;;;;18.17;42.12;100405.72;5025611;28;20072;-60
2023/05/10 08:48:29;;;;;;;3.30;2.33;;;;;;;18.16;41.66;100412.03;5027665;28;20072;-59
2023/05/10 08:50:58;;;;;;;13.35;2.95;;;;;;;18.16;42.19;100417.38;5016249;28;20049;-59
2023/05/10 08:53:27;;;;;;;8.10;2.47;;;;;;;18.36;42.32;100418.16;5027531;28;20057;-59
2023/05/10 08:55:55;;;;;;;5.72;2.25;;;;;;;18.53;41.31;100416.53;5027725;28;20056;-59
2023/05/10 08:58:22;;;;;;;9.35;2.13;;;;;;;18.43;41.30;100398.75;5028330;28;20049;-58
2023/05/10 09:00:52;;;;;;;5.60;2.17;;;;;;;18.51;41.55;100407.84;5027411;28;20049;-60
2023/05/10 09:03:20;;;;;;;5.93;2.50;;;;;;;18.67;41.56;100400.88;5042422;28;20077;-59
2023/05/10 09:05:48;;;;;;;3.63;1.95;;;;;;;18.88;41.39;100403.34;5044644;28;20061;-59
2023/05/10 09:08:19;;;;;;;5.22;2.40;;;;;;;19.07;41.33;100418.41;5036612;28;20057;-60
2023/05/10 09:10:48;;;;;;;9.45;2.47;;;;;;;19.11;40.65;100411.78;5034117;28;20045;-61
2023/05/10 09:13:18;;;;;;;4.95;2.25;;;;;;;19.12;40.13;100407.25;5029790;28;20053;-59
2023/05/10 09:15:46;;;;;;;11.30;8.27;;;;;;;19.08;40.39;100412.06;5029087;28;20060;-51
2023/05/10 09:18:13;;;;;;;10.98;9.25;;;;;;;19.22;39.98;100410.69;5035093;28;20132;-49
2023/05/10 09:20:40;;;;;;;7.80;3.38;;;;;;;19.42;40.41;100419.41;5031160;28;20060;-60
2023/05/10 09:23:08;;;;;;;6.55;2.60;;;;;;;19.33;39.19;100417.66;5048292;28;20073;-58
2023/05/10 09:25:35;;;;;;;8.27;2.47;;;;;;;19.39;39.39;100409.88;5044773;28;20125;-58
2023/05/10 09:28:06;;;;;;;4.50;2.63;;;;;;;19.45;39.48;100421.75;5041666;28;20053;-60
2023/05/10 09:30:33;;;;;;;13.75;2.55;;;;;;;19.42;38.81;100416.75;5040095;28;20051;-59
2023/05/10 09:33:01;;;;;;;11.32;2.58;;;;;;;19.34;39.13;100419.34;5035855;28;20057;-58
2023/05/10 09:35:30;;;;;;;7.57;1.88;;;;;;;19.41;39.43;100409.75;5024062;28;20256;-58
2023/05/10 09:38:00;;;;;;;5.63;2.78;;;;;;;19.38;39.17;100423.38;5026578;28;20149;-59
2023/05/10 09:40:28;;;;;;;7.13;2.17;;;;;;;19.39;38.98;100431.22;5022102;28;20124;-59
2023/05/10 09:42:58;;;;;;;2.88;2.15;;;;;;;19.51;39.08;100423.00;5029524;28;20049;-59
2023/05/10 09:45:27;;;;;;;9.45;2.42;;;;;;;19.58;39.09;100416.03;5030272;28;20068;-59
2023/05/10 09:47:54;;;;;;;6.05;2.28;;;;;;;19.73;39.04;100428.75;5036508;28;20045;-58
2023/05/10 09:50:22;;;;;;;5.22;2.25;;;;;;;19.85;39.30;100420.47;5033028;28;20057;-59
2023/05/10 09:52:54;;;;;;;3.90;2.30;;;;;;;19.89;38.94;100419.16;5030019;28;20153;-56
2023/05/10 09:55:23;;;;;;;5.65;2.47;;;;;;;19.87;38.80;100418.50;5033091;28;20054;-59
2023/05/10 09:57:59;;;;;;;6.13;2.22;;;;;;;20.05;39.16;100426.47;5030118;28;20049;-58
2023/05/10 10:00:27;;;;;;;6.35;2.05;;;;;;;20.20;38.09;100420.38;5027055;28;20046;-59
2023/05/10 10:02:58;;;;;;;3.72;2.33;;;;;;;20.23;38.11;100420.09;5031052;28;20049;-60
2023/05/10 10:05:35;;;;;;;4.00;2.40;;;;;;;20.39;37.55;100421.16;5036185;28;20069;-60
2023/05/10 10:08:04;;;;;;;4.57;2.13;;;;;;;20.42;37.33;100415.50;5029433;28;20240;-60
2023/05/10 10:10:32;;;;;;;6.55;2.00;;;;;;;20.47;37.56;100424.75;5031135;28;20045;-59
2023/05/10 10:12:59;;;;;;;5.05;2.10;;;;;;;20.51;36.97;100429.78;5026499;28;20053;-60
2023/05/10 10:15:27;;;;;;;9.55;2.67;;;;;;;20.41;37.01;100419.19;5029219;28;20046;-59
2023/05/10 10:17:54;;;;;;;4.53;2.20;;;;;;;20.57;37.21;100427.31;5036629;28;20041;-58
2023/05/10 10:20:22;;;;;;;4.72;2.13;;;;;;;20.71;36.84;100424.06;5028316;28;20054;-59
2023/05/10 10:22:49;;;;;;;2.50;2.00;;;;;;;20.84;37.59;100412.88;5025995;28;20128;-57
2023/05/10 10:25:17;;;;;;;5.90;2.33;;;;;;;21.01;37.43;100411.09;5028137;28;20112;-57
2023/05/10 10:27:51;;;;;;;4.60;1.92;;;;;;;21.20;36.89;100413.47;5026320;28;20053;-59
2023/05/10 10:30:39;;;;;;;2.90;2.03;;;;;;;21.35;36.10;100415.56;5026611;28;20064;-59
2023/05/10 10:33:37;;;;;;;5.53;2.17;;;;;;;21.54;36.09;100409.03;5026886;28;20057;-59
2023/05/10 10:36:04;;;;;;;4.25;2.17;;;;;;;21.70;36.30;100403.66;5018951;28;20518;-57
2023/05/10 10:38:47;;;;;;;7.82;2.35;;;;;;;21.87;36.14;100408.00;5028625;28;20056;-60
2023/05/10 10:41:33;;;;;;;3.85;1.90;;;;;;;21.98;35.77;100404.16;5039299;28;20112;-61
2023/05/10 10:44:30;;;;;;;3.67;2.50;;;;;;;22.13;35.29;100397.13;5045962;28;20072;-60
2023/05/10 10:47:18;;;;;;;3.22;2.08;;;;;;;22.34;35.43;100404.63;5038913;28;20544;-60
2023/05/10 10:49:57;;;;;;;7.28;1.85;;;;;;;22.41;34.42;100405.59;5029581;28;20061;-60
2023/05/10 10:52:32;;;;;;;4.07;2.00;;;;;;;22.53;34.37;100415.97;5028277;28;20379;-60
2023/05/10 10:55:02;;;;;;;4.60;2.55;;;;;;;22.39;33.75;100412.16;5027758;28;20057;-60
2023/05/10 10:57:52;;;;;;;10.55;1.80;;;;;;;22.23;34.12;100415.69;5022019;28;20138;-58
2023/05/10 11:00:20;;;;;;;3.72;1.73;;;;;;;22.18;34.21;100407.34;5028108;28;20565;-59
2023/05/10 11:02:59;;;;;;;7.82;2.10;;;;;;;22.23;34.91;100397.75;5034590;28;20412;-58
2023/05/10 11:05:46;;;;;;;3.35;1.92;;;;;;;22.54;35.28;100405.06;5089376;23;20063;-53
2023/05/10 11:08:45;;;;;;;7.47;2.40;;;;;;;22.60;34.12;100408.88;5086522;28;20060;-51
2023/05/10 11:11:14;;;;;;;8.18;1.95;;;;;;;22.62;34.15;100413.06;5086761;28;20114;-55
2023/05/10 11:13:45;;;;;;;6.90;2.60;;;;;;;22.68;33.90;100407.00;5082094;28;20044;-53
2023/05/10 11:16:20;;;;;;;9.38;2.22;;;;;;;22.72;33.51;100407.50;5066278;28;20068;-53
2023/05/10 11:19:01;;;;;;;5.63;2.05;;;;;;;22.65;33.56;100411.88;5068713;28;20049;-53
2023/05/10 11:21:30;;;;;;;4.13;2.15;;;;;;;22.55;33.40;100409.41;5066648;28;20048;-55
2023/05/10 11:24:05;;;;;;;4.70;2.00;;;;;;;22.58;33.54;100386.78;5066282;28;20048;-53
2023/05/10 11:26:36;;;;;;;5.40;2.30;;;;;;;22.75;33.96;100396.44;5068611;28;20049;-53
2023/05/10 11:29:04;;;;;;;5.47;2.15;;;;;;;22.94;33.77;100398.69;5064963;28;20497;-53
2023/05/10 11:31:32;;;;;;;4.68;2.15;;;;;;;23.14;33.70;100395.56;5067138;28;20389;-52
2023/05/10 11:34:01;;;;;;;6.35;2.10;;;;;;;23.23;33.02;100402.53;5064110;28;20059;-52
2023/05/10 11:36:35;;;;;;;3.70;2.08;;;;;;;23.24;32.72;100407.75;5068051;28;20056;-53
2023/05/10 11:39:03;;;;;;;4.72;1.95;;;;;;;23.31;32.83;100402.50;5076190;28;20052;-51